createdAt,value
2019-03-05T00:00:42.155Z,98313.53
2019-03-05T00:03:10.331Z,98311.36
2019-03-05T00:05:37.649Z,98324.47
2019-03-05T00:08:05.052Z,98322.68
2019-03-05T00:10:32.023Z,98321.47
2019-03-05T00:12:58.982Z,98339.75
2019-03-05T00:15:26.325Z,98324.97
2019-03-05T00:17:54.121Z,98328.78
2019-03-05T00:20:22.124Z,98328.89
2019-03-05T00:22:49.172Z,98336.89
2019-03-05T00:25:16.224Z,98323.20
2019-03-05T00:27:43.236Z,98327.02
2019-03-05T00:30:10.247Z,98329.92
2019-03-05T00:32:41.690Z,98328.28
2019-03-05T00:35:12.831Z,98323.20
2019-03-05T00:37:39.825Z,98327.62
2019-03-05T00:40:09.917Z,98326.91
2019-03-05T00:42:40.285Z,98327.80
2019-03-05T00:45:08.339Z,98333.92
2019-03-05T00:47:35.482Z,98326.41
2019-03-05T00:50:05.975Z,98337.41
2019-03-05T00:52:33.058Z,98338.63
2019-03-05T00:55:00.262Z,98339.48
2019-03-05T00:57:27.496Z,98338.63
2019-03-05T00:59:54.420Z,98341.92
2019-03-05T01:02:21.541Z,98333.80
2019-03-05T01:04:49.081Z,98337.61
2019-03-05T01:07:16.038Z,98338.94
2019-03-05T01:09:43.452Z,98348.73
2019-03-05T01:12:11.038Z,98341.59
2019-03-05T01:14:39.038Z,98354.73
2019-03-05T01:17:08.435Z,98351.70
2019-03-05T01:19:41.157Z,98361.75
2019-03-05T01:22:11.126Z,98359.20
2019-03-05T01:24:39.552Z,98360.16
2019-03-05T01:27:09.745Z,98350.80
2019-03-05T01:29:37.128Z,98352.91
2019-03-05T01:32:04.224Z,98349.28
2019-03-05T01:34:31.323Z,98350.66
2019-03-05T01:36:58.328Z,98349.45
2019-03-05T01:39:25.417Z,98354.13
2019-03-05T01:41:52.935Z,98354.47
2019-03-05T01:44:20.313Z,98354.47
2019-03-05T01:46:47.444Z,98360.83
2019-03-05T01:49:14.860Z,98359.15
2019-03-05T01:51:41.876Z,98368.94
2019-03-05T01:54:09.271Z,98365.96
2019-03-05T01:56:38.288Z,98351.03
2019-03-05T01:59:07.580Z,98361.60
2019-03-05T02:01:36.538Z,98361.20
2019-03-05T02:04:03.872Z,98350.92
2019-03-05T02:06:31.208Z,98362.35
2019-03-05T02:09:01.416Z,98347.00
2019-03-05T02:11:30.525Z,98343.59
2019-03-05T02:13:57.515Z,98339.44
2019-03-05T02:16:24.801Z,98340.77
2019-03-05T02:18:52.362Z,98339.11
2019-03-05T02:21:19.917Z,98350.55
2019-03-05T02:23:46.986Z,98345.03
2019-03-05T02:26:14.103Z,98339.11
2019-03-05T02:28:41.571Z,98349.66
2019-03-05T02:31:08.647Z,98346.25
2019-03-05T02:33:35.691Z,98355.20
2019-03-05T02:36:02.735Z,98346.85
2019-03-05T02:38:30.151Z,98348.91
2019-03-05T02:41:02.747Z,98347.95
2019-03-05T02:43:29.826Z,98351.81
2019-03-05T02:45:56.969Z,98345.78
2019-03-05T02:48:27.220Z,98353.23
2019-03-05T02:50:54.177Z,98359.50
2019-03-05T02:53:21.683Z,98357.70
2019-03-05T02:55:48.769Z,98359.70
2019-03-05T02:58:15.899Z,98358.25
2019-03-05T03:00:43.050Z,98367.15
2019-03-05T03:03:10.259Z,98370.59
2019-03-05T03:05:39.147Z,98372.34
2019-03-05T03:08:08.730Z,98367.67
2019-03-05T03:10:36.413Z,98376.59
2019-03-05T03:13:04.009Z,98384.19
2019-03-05T03:15:37.022Z,98373.12
2019-03-05T03:17:59.851Z,98371.25
2019-03-05T03:20:26.944Z,98378.76
2019-03-05T03:22:54.392Z,98386.75
2019-03-05T03:25:22.341Z,98382.45
2019-03-05T03:27:52.546Z,98398.42
2019-03-05T03:30:23.577Z,98400.91
2019-03-05T03:32:52.402Z,98404.72
2019-03-05T03:35:19.456Z,98398.37
2019-03-05T03:37:52.916Z,98395.36
2019-03-05T03:40:19.996Z,98390.86
2019-03-05T03:42:49.063Z,98374.34
2019-03-05T03:45:17.931Z,98393.52
2019-03-05T03:47:44.992Z,98396.92
2019-03-05T03:50:12.134Z,98383.90
2019-03-05T03:52:39.186Z,98394.88
2019-03-05T03:55:15.859Z,98393.60
2019-03-05T03:57:39.415Z,98393.23
2019-03-05T04:00:09.147Z,98380.64
2019-03-05T04:02:37.887Z,98388.31
2019-03-05T04:05:06.562Z,98393.40
2019-03-05T04:07:33.974Z,98390.48
2019-03-05T04:10:01.082Z,98389.64
2019-03-05T04:12:28.323Z,98388.75
2019-03-05T04:14:55.470Z,98394.73
2019-03-05T04:17:24.081Z,98387.54
2019-03-05T04:19:51.708Z,98387.54
2019-03-05T04:22:24.697Z,98393.95
2019-03-05T04:24:52.384Z,98384.50
2019-03-05T04:27:22.494Z,98401.91
2019-03-05T04:29:54.229Z,98395.16
2019-03-05T04:32:23.726Z,98407.91
2019-03-05T04:34:49.856Z,98410.38
2019-03-05T04:37:17.847Z,98418.31
2019-03-05T04:39:45.052Z,98421.23
2019-03-05T04:42:13.712Z,98424.23
2019-03-05T04:44:46.595Z,98422.91
2019-03-05T04:47:13.669Z,98422.44
2019-03-05T04:49:40.738Z,98416.55
2019-03-05T04:52:07.750Z,98429.20
2019-03-05T04:54:34.878Z,98429.15
2019-03-05T04:57:01.918Z,98433.77
2019-03-05T04:59:29.711Z,98425.39
2019-03-05T05:01:57.114Z,98430.13
2019-03-05T05:04:24.430Z,98423.83
2019-03-05T05:06:51.881Z,98427.64
2019-03-05T05:09:21.430Z,98435.72
2019-03-05T05:11:48.533Z,98431.08
2019-03-05T05:14:15.610Z,98435.80
2019-03-05T05:16:42.739Z,98434.53
2019-03-05T05:19:09.778Z,98436.27
2019-03-05T05:21:37.211Z,98440.89
2019-03-05T05:24:08.454Z,98437.86
2019-03-05T05:26:36.790Z,98432.77
2019-03-05T05:29:03.807Z,98443.83
2019-03-05T05:31:34.167Z,98437.13
2019-03-05T05:34:01.598Z,98450.67
2019-03-05T05:36:28.933Z,98451.56
2019-03-05T05:38:56.418Z,98432.89
2019-03-05T05:41:23.591Z,98439.67
2019-03-05T05:43:50.926Z,98440.13
2019-03-05T05:46:18.583Z,98444.32
2019-03-05T05:48:45.710Z,98444.32
2019-03-05T05:51:16.176Z,98447.76
2019-03-05T05:53:47.474Z,98451.51
2019-03-05T05:56:14.546Z,98454.97
2019-03-05T05:58:41.618Z,98449.52
2019-03-05T06:01:11.462Z,98461.84
2019-03-05T06:03:38.779Z,98469.84
2019-03-05T06:06:05.927Z,98472.86
2019-03-05T06:08:34.527Z,98466.03
2019-03-05T06:11:08.736Z,98467.30
2019-03-05T06:13:36.617Z,98474.13
2019-03-05T06:16:06.926Z,98465.13
2019-03-05T06:18:35.738Z,98476.13
2019-03-05T06:21:04.353Z,98473.11
2019-03-05T06:23:39.737Z,98480.67
2019-03-05T06:26:08.686Z,98485.34
2019-03-05T06:28:37.810Z,98483.22
2019-03-05T06:31:04.818Z,98479.00
2019-03-05T06:33:34.734Z,98484.08
2019-03-05T06:36:03.486Z,98477.65
2019-03-05T06:38:32.614Z,98484.43
2019-03-05T06:41:06.029Z,98481.11
2019-03-05T06:43:35.237Z,98467.13
2019-03-05T06:46:03.851Z,98479.73
2019-03-05T06:48:35.348Z,98479.56
2019-03-05T06:51:02.410Z,98471.63
2019-03-05T06:56:20.246Z,98488.87
2019-03-05T06:58:47.232Z,98503.29
2019-03-05T07:01:16.346Z,98487.17
2019-03-05T07:03:43.516Z,98478.97
2019-03-05T07:06:10.693Z,98498.30
2019-03-05T07:08:38.062Z,98491.01
2019-03-05T07:11:05.534Z,98486.12
2019-03-05T07:13:35.344Z,98494.32
2019-03-05T07:16:03.597Z,98491.95
2019-03-05T07:18:30.776Z,98503.43
2019-03-05T07:20:58.227Z,98521.22
2019-03-05T07:23:25.814Z,98505.11
2019-03-05T07:25:52.926Z,98503.61
2019-03-05T07:28:22.925Z,98518.58
2019-03-05T07:30:52.503Z,98515.34
2019-03-05T07:33:19.499Z,98508.58
2019-03-05T07:35:46.580Z,98528.64
2019-03-05T07:38:17.895Z,98540.78
2019-03-05T07:40:46.590Z,98530.72
2019-03-05T07:43:13.621Z,98531.60
2019-03-05T07:45:40.618Z,98537.31
2019-03-05T07:48:07.965Z,98547.63
2019-03-05T07:50:35.527Z,98548.55
2019-03-05T07:53:02.704Z,98555.45
2019-03-05T07:55:29.653Z,98550.00
2019-03-05T07:57:56.655Z,98553.19
2019-03-05T08:00:23.735Z,98546.55
2019-03-05T08:02:51.091Z,98553.94
2019-03-05T08:05:18.075Z,98552.54
2019-03-05T08:07:45.214Z,98543.89
2019-03-05T08:10:12.264Z,98548.20
2019-03-05T08:12:39.612Z,98561.84
2019-03-05T08:15:08.418Z,98575.12
2019-03-05T08:17:35.422Z,98568.03
2019-03-05T08:20:02.485Z,98586.30
2019-03-05T08:22:30.434Z,98594.62
2019-03-05T08:24:59.544Z,98609.07
2019-03-05T08:27:28.436Z,98606.02
2019-03-05T08:29:55.533Z,98613.85
2019-03-05T08:32:25.656Z,98622.09
2019-03-05T08:34:53.029Z,98616.41
2019-03-05T08:37:19.963Z,98623.36
2019-03-05T08:40:00.700Z,98614.92
2019-03-05T08:42:27.538Z,98626.26
2019-03-05T08:44:57.760Z,98630.77
2019-03-05T08:47:29.340Z,98624.14
2019-03-05T08:49:56.263Z,98623.39
2019-03-05T08:52:24.120Z,98644.31
2019-03-05T08:54:51.402Z,98642.79
2019-03-05T08:57:18.398Z,98660.25
2019-03-05T08:59:45.749Z,98645.88
2019-03-05T09:02:12.998Z,98646.30
2019-03-05T09:04:40.197Z,98658.89
2019-03-05T09:07:07.292Z,98653.25
2019-03-05T09:09:36.625Z,98664.73
2019-03-05T09:12:03.589Z,98675.19
2019-03-05T09:14:30.602Z,98662.27
2019-03-05T09:17:01.394Z,98666.39
2019-03-05T09:19:28.458Z,98663.78
2019-03-05T09:21:55.815Z,98670.59
2019-03-05T09:24:22.834Z,98684.68
2019-03-05T09:26:51.490Z,98675.97
2019-03-05T09:29:19.123Z,98674.17
2019-03-05T09:31:46.155Z,98682.71
2019-03-05T09:34:14.751Z,98681.13
2019-03-05T09:36:50.396Z,98683.47
2019-03-05T09:39:10.410Z,98692.21
2019-03-05T09:41:37.880Z,98684.28
2019-03-05T09:44:04.843Z,98682.42
2019-03-05T09:46:31.867Z,98705.12
2019-03-05T09:48:58.831Z,98691.78
2019-03-05T09:51:26.000Z,98691.13
2019-03-05T09:53:53.295Z,98684.94
2019-03-05T09:56:20.459Z,98697.37
2019-03-05T09:58:47.824Z,98683.29
2019-03-05T10:01:14.894Z,98689.59
2019-03-05T10:03:41.931Z,98691.00
2019-03-05T10:06:08.857Z,98691.61
2019-03-05T10:08:35.838Z,98689.22
2019-03-05T10:11:02.853Z,98693.65
2019-03-05T10:13:30.312Z,98700.52
2019-03-05T10:15:57.255Z,98693.28
2019-03-05T10:18:24.943Z,98694.55
2019-03-05T10:20:51.994Z,98689.05
2019-03-05T10:23:18.986Z,98687.78
2019-03-05T10:25:46.327Z,98692.99
2019-03-05T10:28:14.388Z,98701.41
2019-03-05T10:30:41.261Z,98688.87
2019-03-05T10:33:08.229Z,98691.88
2019-03-05T10:35:35.426Z,98689.96
2019-03-05T10:38:02.415Z,98691.55
2019-03-05T10:40:29.675Z,98682.82
2019-03-05T10:43:07.804Z,98685.22
2019-03-05T10:45:25.571Z,98690.07
2019-03-05T10:47:52.492Z,98688.55
2019-03-05T10:50:21.066Z,98684.22
2019-03-05T10:55:29.473Z,98694.08
2019-03-05T10:57:56.899Z,98698.22
2019-03-05T11:00:24.252Z,98700.77
2019-03-05T11:02:51.688Z,98698.59
2019-03-05T11:05:18.887Z,98693.11
2019-03-05T11:07:46.178Z,98692.80
2019-03-05T11:10:13.479Z,98698.22
2019-03-05T11:12:40.878Z,98674.37
2019-03-05T11:15:08.077Z,98681.45
2019-03-05T11:17:39.234Z,98669.55
2019-03-05T11:20:06.197Z,98670.45
2019-03-05T11:22:33.785Z,98674.52
2019-03-05T11:25:00.850Z,98674.67
2019-03-05T11:27:28.072Z,98677.23
2019-03-05T11:29:55.106Z,98676.05
2019-03-05T11:32:22.141Z,98668.46
2019-03-05T11:34:49.158Z,98684.22
2019-03-05T11:37:16.581Z,98693.89
2019-03-05T11:39:43.540Z,98690.87
2019-03-05T11:42:10.905Z,98687.86
2019-03-05T11:44:38.263Z,98687.23
2019-03-05T11:47:05.474Z,98676.52
2019-03-05T11:49:32.743Z,98676.86
2019-03-05T11:52:00.954Z,98674.25
2019-03-05T11:54:27.932Z,98673.34
2019-03-05T11:56:55.930Z,98662.16
2019-03-05T11:59:22.926Z,98671.95
2019-03-05T12:01:50.278Z,98681.89
2019-03-05T12:04:17.297Z,98694.76
2019-03-05T12:06:44.386Z,98680.02
2019-03-05T12:09:11.426Z,98690.80
2019-03-05T12:11:38.988Z,98692.63
2019-03-05T12:14:06.014Z,98706.52
2019-03-05T12:16:33.257Z,98717.62
2019-03-05T12:19:01.618Z,98727.80
2019-03-05T12:21:28.603Z,98737.49
2019-03-05T12:23:55.577Z,98752.70
2019-03-05T12:26:22.559Z,98757.58
2019-03-05T12:28:49.853Z,98759.66
2019-03-05T12:31:17.848Z,98761.91
2019-03-05T12:33:45.089Z,98759.95
2019-03-05T12:36:12.643Z,98758.30
2019-03-05T12:38:39.619Z,98763.34
2019-03-05T12:41:06.996Z,98762.50
2019-03-05T12:43:34.002Z,98750.23
2019-03-05T12:46:01.040Z,98749.83
2019-03-05T12:48:39.207Z,98750.45
2019-03-05T12:50:56.636Z,98749.36
2019-03-05T12:53:28.964Z,98749.06
2019-03-05T12:55:59.102Z,98752.36
2019-03-05T12:58:26.449Z,98764.34
2019-03-05T13:00:54.014Z,98759.03
2019-03-05T13:03:25.136Z,98769.00
2019-03-05T13:05:52.363Z,98765.77
2019-03-05T13:08:20.135Z,98777.13
2019-03-05T13:10:47.088Z,98770.66
2019-03-05T13:13:15.288Z,98761.75
2019-03-05T13:15:42.652Z,98757.09
2019-03-05T13:18:09.641Z,98760.20
2019-03-05T13:20:36.677Z,98755.83
2019-03-05T13:23:08.769Z,98755.34
2019-03-05T13:25:32.940Z,98740.00
2019-03-05T13:28:02.063Z,98749.35
2019-03-05T13:30:29.084Z,98745.44
2019-03-05T13:32:59.030Z,98741.12
2019-03-05T13:35:30.345Z,98754.23
2019-03-05T13:37:55.409Z,98742.90
2019-03-05T13:40:22.393Z,98738.63
2019-03-05T13:42:49.387Z,98739.67
2019-03-05T13:45:16.312Z,98739.16
2019-03-05T13:47:43.466Z,98743.39
2019-03-05T13:50:11.287Z,98745.73
2019-03-05T13:52:38.678Z,98747.05
2019-03-05T13:55:05.623Z,98755.21
2019-03-05T13:57:32.677Z,98751.30
2019-03-05T13:59:59.701Z,98755.97
2019-03-05T14:02:26.730Z,98741.27
2019-03-05T14:04:53.665Z,98744.94
2019-03-05T14:07:20.875Z,98748.16
2019-03-05T14:09:47.902Z,98750.33
2019-03-05T14:12:14.942Z,98751.56
2019-03-05T14:14:41.880Z,98759.98
2019-03-05T14:17:08.851Z,98764.91
2019-03-05T14:19:36.085Z,98756.78
2019-03-05T14:22:03.005Z,98764.61
2019-03-05T14:24:30.284Z,98763.44
2019-03-05T14:26:57.248Z,98764.16
2019-03-05T14:29:24.184Z,98769.50
2019-03-05T14:31:51.437Z,98764.44
2019-03-05T14:34:18.704Z,98762.50
2019-03-05T14:36:45.679Z,98773.97
2019-03-05T14:39:13.010Z,98768.43
2019-03-05T14:41:40.366Z,98773.97
2019-03-05T14:44:07.622Z,98779.25
2019-03-05T14:46:34.615Z,98790.53
2019-03-05T14:49:01.917Z,98786.81
2019-03-05T14:51:28.889Z,98795.99
2019-03-05T14:53:55.788Z,98805.28
2019-03-05T14:56:22.742Z,98804.09
2019-03-05T14:58:49.994Z,98806.31
2019-03-05T15:01:17.344Z,98814.49
2019-03-05T15:03:44.587Z,98814.61
2019-03-05T15:06:11.516Z,98816.05
2019-03-05T15:08:38.792Z,98814.06
2019-03-05T15:11:05.784Z,98812.89
2019-03-05T15:13:32.793Z,98818.80
2019-03-05T15:16:00.177Z,98821.25
2019-03-05T15:18:27.231Z,98825.72
2019-03-05T15:20:54.331Z,98822.70
2019-03-05T15:23:21.741Z,98830.52
2019-03-05T15:25:49.096Z,98823.20
2019-03-05T15:28:16.300Z,98829.77
2019-03-05T15:30:43.453Z,98835.03
2019-03-05T15:33:10.711Z,98829.88
2019-03-05T15:35:37.637Z,98831.95
2019-03-05T15:38:04.688Z,98832.08
2019-03-05T15:40:32.498Z,98829.53
2019-03-05T15:42:59.550Z,98834.86
2019-03-05T15:45:26.842Z,98824.20
2019-03-05T15:47:53.893Z,98828.02
2019-03-05T15:50:21.233Z,98830.15
2019-03-05T15:52:48.547Z,98832.70
2019-03-05T15:55:15.787Z,98840.92
2019-03-05T15:57:43.241Z,98834.25
2019-03-05T16:00:10.352Z,98837.27
2019-03-05T16:02:37.304Z,98847.55
2019-03-05T16:05:11.920Z,98845.38
2019-03-05T16:07:32.890Z,98846.33
2019-03-05T16:09:59.916Z,98844.73
2019-03-05T16:12:26.884Z,98844.89
2019-03-05T16:14:53.856Z,98841.19
2019-03-05T16:17:24.175Z,98835.91
2019-03-05T16:19:52.812Z,98844.13
2019-03-05T16:22:19.196Z,98848.09
2019-03-05T16:24:46.282Z,98850.82
2019-03-05T16:27:13.253Z,98846.27
2019-03-05T16:29:40.321Z,98851.34
2019-03-05T16:32:07.413Z,98851.63
2019-03-05T16:34:34.818Z,98853.31
2019-03-05T16:37:05.767Z,98861.70
2019-03-05T16:39:31.673Z,98860.00
2019-03-05T16:42:00.468Z,98874.93
2019-03-05T16:44:27.437Z,98877.91
2019-03-05T16:46:57.647Z,98871.38
2019-03-05T16:49:24.627Z,98881.73
2019-03-05T16:51:51.764Z,98884.27
2019-03-05T16:54:18.843Z,98885.16
2019-03-05T16:56:46.165Z,98881.82
2019-03-05T16:59:13.239Z,98893.27
2019-03-05T17:01:40.247Z,98900.59
2019-03-05T17:04:07.542Z,98905.36
2019-03-05T17:06:34.593Z,98912.27
2019-03-05T17:09:01.633Z,98914.01
2019-03-05T17:11:30.158Z,98929.77
2019-03-05T17:13:57.532Z,98929.02
2019-03-05T17:16:26.322Z,98941.68
2019-03-05T17:18:53.336Z,98941.16
2019-03-05T17:21:27.513Z,98944.46
2019-03-05T17:23:52.773Z,98951.67
2019-03-05T17:26:22.747Z,98958.11
2019-03-05T17:28:50.342Z,98964.13
2019-03-05T17:31:17.975Z,98966.20
2019-03-05T17:33:45.338Z,98971.23
2019-03-05T17:36:15.405Z,98981.27
2019-03-05T17:38:42.576Z,98981.61
2019-03-05T17:41:09.758Z,98991.06
2019-03-05T17:43:37.175Z,99001.23
2019-03-05T17:46:04.252Z,99006.73
2019-03-05T17:48:31.487Z,99013.13
2019-03-05T17:53:32.737Z,99022.92
2019-03-05T17:56:00.050Z,99034.14
2019-03-05T17:58:27.071Z,99035.12
2019-03-05T18:00:54.359Z,99036.89
2019-03-05T18:03:21.609Z,99045.44
2019-03-05T18:05:48.743Z,99044.21
2019-03-05T18:08:16.068Z,99049.34
2019-03-05T18:10:43.333Z,99057.77
2019-03-05T18:13:10.657Z,99056.58
2019-03-05T18:15:37.746Z,99052.43
2019-03-05T18:18:04.809Z,99062.59
2019-03-05T18:20:33.415Z,99067.75
2019-03-05T18:23:00.795Z,99071.22
2019-03-05T18:25:29.438Z,99082.66
2019-03-05T18:27:56.906Z,99078.92
2019-03-05T18:30:24.164Z,99080.66
2019-03-05T18:32:53.618Z,99083.69
2019-03-05T18:35:20.683Z,99089.23
2019-03-05T18:37:48.605Z,99094.34
2019-03-05T18:40:15.653Z,99101.13
2019-03-05T18:42:42.735Z,99102.43
2019-03-05T18:45:09.732Z,99114.70
2019-03-05T18:47:36.819Z,99118.98
2019-03-05T18:50:03.998Z,99116.05
2019-03-05T18:52:31.871Z,99124.52
2019-03-05T18:54:58.916Z,99122.43
2019-03-05T18:57:26.882Z,99130.47
2019-03-05T18:59:53.803Z,99136.44
2019-03-05T19:02:27.038Z,99136.89
2019-03-05T19:04:54.011Z,99140.36
2019-03-05T19:07:21.312Z,99144.23
2019-03-05T19:09:48.394Z,99145.58
2019-03-05T19:12:15.908Z,99147.30
2019-03-05T19:14:43.250Z,99151.61
2019-03-05T19:17:10.682Z,99155.94
2019-03-05T19:19:37.662Z,99157.67
2019-03-05T19:22:04.706Z,99162.75
2019-03-05T19:24:33.789Z,99166.12
2019-03-05T19:27:00.962Z,99170.81
2019-03-05T19:29:29.270Z,99173.36
2019-03-05T19:31:56.554Z,99175.11
2019-03-05T19:34:23.917Z,99181.82
2019-03-05T19:36:51.185Z,99183.90
2019-03-05T19:39:18.159Z,99183.48
2019-03-05T19:41:45.594Z,99192.36
2019-03-05T19:44:13.891Z,99194.94
2019-03-05T19:46:41.678Z,99201.34
2019-03-05T19:49:08.648Z,99213.16
2019-03-05T19:51:35.891Z,99214.40
2019-03-05T19:54:03.427Z,99217.39
2019-03-05T19:56:31.072Z,99227.16
2019-03-05T19:58:59.757Z,99233.89
2019-03-05T20:01:26.760Z,99240.23
2019-03-05T20:03:53.767Z,99237.70
2019-03-05T20:06:21.085Z,99240.63
2019-03-05T20:08:48.729Z,99243.17
2019-03-05T20:11:16.375Z,99239.75
2019-03-05T20:13:43.871Z,99243.95
2019-03-05T20:16:11.182Z,99247.78
2019-03-05T20:18:38.663Z,99246.55
2019-03-05T20:21:06.008Z,99254.23
2019-03-05T20:23:34.931Z,99255.53
2019-03-05T20:26:04.972Z,99258.09
2019-03-05T20:28:32.592Z,99253.05
2019-03-05T20:30:59.574Z,99257.25
2019-03-05T20:33:26.946Z,99262.75
2019-03-05T20:35:55.522Z,99268.67
2019-03-05T20:38:22.549Z,99272.16
2019-03-05T20:40:53.049Z,99264.54
2019-03-05T20:43:21.034Z,99278.08
2019-03-05T20:45:48.088Z,99278.98
2019-03-05T20:48:19.079Z,99276.80
2019-03-05T20:50:46.569Z,99268.41
2019-03-05T20:53:15.880Z,99278.95
2019-03-05T20:55:43.593Z,99279.02
2019-03-05T20:58:10.771Z,99285.81
2019-03-05T21:00:38.575Z,99288.28
2019-03-05T21:03:05.621Z,99287.45
2019-03-05T21:05:38.332Z,99297.14
2019-03-05T21:08:05.337Z,99295.96
2019-03-05T21:10:32.518Z,99299.44
2019-03-05T21:12:59.608Z,99304.48
2019-03-05T21:15:27.058Z,99303.61
2019-03-05T21:17:54.305Z,99303.21
2019-03-05T21:20:21.866Z,99310.80
2019-03-05T21:22:49.077Z,99310.41
2019-03-05T21:25:16.124Z,99311.64
2019-03-05T21:27:43.878Z,99313.73
2019-03-05T21:30:13.171Z,99319.28
2019-03-05T21:32:40.281Z,99318.86
2019-03-05T21:35:07.597Z,99323.94
2019-03-05T21:37:34.550Z,99322.28
2019-03-05T21:40:01.795Z,99323.60
2019-03-05T21:42:29.209Z,99321.52
2019-03-05T21:44:59.086Z,99322.02
2019-03-05T21:47:26.130Z,99325.83
2019-03-05T21:49:53.258Z,99332.62
2019-03-05T21:52:20.595Z,99333.94
2019-03-05T21:54:48.137Z,99338.63
2019-03-05T21:57:15.430Z,99347.50
2019-03-05T21:59:42.341Z,99346.63
2019-03-05T22:02:16.910Z,99352.13
2019-03-05T22:04:43.963Z,99356.78
2019-03-05T22:07:11.095Z,99352.58
2019-03-05T22:09:38.120Z,99363.99
2019-03-05T22:12:05.055Z,99369.48
2019-03-05T22:14:32.382Z,99376.76
2019-03-05T22:17:02.802Z,99389.42
2019-03-05T22:19:30.196Z,99390.28
2019-03-05T22:21:57.240Z,99399.62
2019-03-05T22:24:24.190Z,99397.92
2019-03-05T22:26:51.216Z,99407.67
2019-03-05T22:29:19.220Z,99402.62
2019-03-05T22:31:47.280Z,99407.28
2019-03-05T22:34:14.481Z,99405.58
2019-03-05T22:36:41.501Z,99407.75
2019-03-05T22:39:08.448Z,99412.41
2019-03-05T22:41:38.272Z,99418.31
2019-03-05T22:44:04.872Z,99420.47
2019-03-05T22:46:33.246Z,99418.78
2019-03-05T22:49:00.602Z,99421.34
2019-03-05T22:51:27.943Z,99421.36
2019-03-05T22:53:54.807Z,99420.09
2019-03-05T22:56:22.361Z,99422.66
2019-03-05T22:58:49.709Z,99424.75
2019-03-05T23:01:17.378Z,99428.48
2019-03-05T23:03:45.404Z,99429.35
2019-03-05T23:06:12.683Z,99434.82
2019-03-05T23:08:39.661Z,99431.02
2019-03-05T23:11:06.998Z,99435.25
2019-03-05T23:13:33.977Z,99439.48
2019-03-05T23:16:01.063Z,99442.02
2019-03-05T23:18:28.334Z,99444.97
2019-03-05T23:20:55.711Z,99439.50
2019-03-05T23:23:22.689Z,99445.39
2019-03-05T23:25:49.658Z,99445.44
2019-03-05T23:28:16.613Z,99448.84
2019-03-05T23:30:43.845Z,99452.23
2019-03-05T23:33:10.809Z,99457.27
2019-03-05T23:35:38.116Z,99459.41
2019-03-05T23:38:05.451Z,99460.25
2019-03-05T23:40:32.409Z,99461.55
2019-03-05T23:42:59.640Z,99461.97
2019-03-05T23:45:26.506Z,99462.39
2019-03-05T23:47:53.413Z,99465.80
2019-03-05T23:50:20.358Z,99473.82
2019-03-05T23:52:47.599Z,99473.84
2019-03-05T23:55:14.883Z,99473.03
2019-03-05T23:57:42.138Z,99474.72
